Time;durP1;ratioP1;P1;durP2;ratioP2;P2;SDS_P1;SDS_P2;PMS_P1;PMS_P2;Temp;Humidity;BMP_temperature;BMP_pressure;BME280_temperature;BME280_humidity;BME280_pressure;Samples;Min_cycle;Max_cycle;Signal;HPM_P1;HPM_P2
2023/03/05 00:03:54;;;;;;;12.55;10.60;;;;;;;;;;10069432;28;20124;-74
2023/03/05 00:08:47;;;;;;;14.20;11.98;;;;;;;;;;10069265;28;20526;-74
2023/03/05 00:13:41;;;;;;;18.17;13.20;;;;;;;;;;10068972;28;20041;-73
2023/03/05 00:18:34;;;;;;;17.48;13.25;;;;;;;;;;10068974;28;20507;-73
2023/03/05 00:23:27;;;;;;;14.23;11.32;;;;;;;;;;10067404;28;20053;-73
2023/03/05 00:28:21;;;;;;;14.35;12.43;;;;;;;;;;10068360;28;20347;-73
2023/03/05 00:33:20;;;;;;;13.70;11.30;;;;;;;;;;10067342;28;20042;-73
2023/03/05 00:38:14;;;;;;;16.58;12.23;;;;;;;;;;10066961;28;20746;-76
2023/03/05 00:43:08;;;;;;;19.55;11.30;;;;;;;;;;10068259;28;20516;-74
2023/03/05 00:48:02;;;;;;;18.73;11.85;;;;;;;;;;10066252;28;20148;-74
2023/03/05 00:52:55;;;;;;;20.98;11.68;;;;;;;;;;10066905;28;20447;-75
2023/03/05 00:57:49;;;;;;;17.67;11.48;;;;;;;;;;10067511;28;20060;-74
2023/03/05 01:02:41;;;;;;;16.48;10.90;;;;;;;;;;10052966;28;20048;-77
2023/03/05 01:07:35;;;;;;;18.35;11.27;;;;;;;;;;10067187;28;20050;-74
2023/03/05 01:12:27;;;;;;;14.82;9.98;;;;;;;;;;10061571;28;20129;-74
2023/03/05 01:17:22;;;;;;;14.82;10.35;;;;;;;;;;10066151;28;20073;-75
2023/03/05 01:22:14;;;;;;;15.52;10.20;;;;;;;;;;10067012;28;20080;-73
2023/03/05 01:27:09;;;;;;;17.30;10.13;;;;;;;;;;10065466;28;20053;-73
2023/03/05 01:32:01;;;;;;;13.63;9.57;;;;;;;;;;10065599;28;20103;-74
2023/03/05 01:36:55;;;;;;;16.38;10.10;;;;;;;;;;10061586;28;20045;-73
2023/03/05 01:41:48;;;;;;;14.15;9.40;;;;;;;;;;10065276;28;20034;-73
2023/03/05 01:46:41;;;;;;;13.73;9.15;;;;;;;;;;10061460;28;20045;-73
2023/03/05 01:52:23;;;;;;;17.13;10.98;;;;;;;;;;10059896;28;20053;-73
2023/03/05 01:57:20;;;;;;;14.52;11.18;;;;;;;;;;10062476;28;20416;-73
2023/03/05 02:02:13;;;;;;;12.45;9.50;;;;;;;;;;10048201;28;20041;-75
2023/03/05 02:07:07;;;;;;;14.98;9.43;;;;;;;;;;10065306;28;20068;-75
2023/03/05 02:11:59;;;;;;;12.55;9.10;;;;;;;;;;10064263;28;20045;-75
2023/03/05 02:16:53;;;;;;;17.20;9.20;;;;;;;;;;10064082;28;20048;-75
2023/03/05 02:21:49;;;;;;;14.13;9.95;;;;;;;;;;10065940;28;20050;-75
2023/03/05 02:26:43;;;;;;;10.00;8.88;;;;;;;;;;10073705;28;20069;-73
2023/03/05 02:31:37;;;;;;;17.08;10.43;;;;;;;;;;10071236;28;20058;-74
2023/03/05 02:36:31;;;;;;;17.02;9.88;;;;;;;;;;10071321;28;20172;-75
2023/03/05 02:41:25;;;;;;;14.90;10.25;;;;;;;;;;10070806;28;20045;-73
2023/03/05 02:46:20;;;;;;;11.18;8.20;;;;;;;;;;10055023;28;20497;-73
2023/03/05 02:51:13;;;;;;;11.07;8.50;;;;;;;;;;10070442;28;20057;-73
2023/03/05 02:56:09;;;;;;;18.70;8.65;;;;;;;;;;10070449;28;20050;-73
2023/03/05 03:01:03;;;;;;;14.80;8.88;;;;;;;;;;10068508;28;20049;-73
2023/03/05 03:05:57;;;;;;;11.32;8.63;;;;;;;;;;10064248;28;20505;-73
2023/03/05 03:10:50;;;;;;;16.55;8.10;;;;;;;;;;10071434;28;20042;-73
2023/03/05 03:15:42;;;;;;;12.48;9.30;;;;;;;;;;10071631;28;20457;-73
2023/03/05 03:20:38;;;;;;;13.70;10.52;;;;;;;;;;10071830;28;20508;-73
2023/03/05 03:25:32;;;;;;;11.73;9.23;;;;;;;;;;10070818;28;20042;-73
2023/03/05 03:30:25;;;;;;;12.73;8.38;;;;;;;;;;10070554;28;20578;-72
2023/03/05 03:35:19;;;;;;;18.83;9.05;;;;;;;;;;10069440;28;20054;-73
2023/03/05 03:40:13;;;;;;;16.42;8.68;;;;;;;;;;10070476;28;20100;-72
2023/03/05 03:45:06;;;;;;;12.68;9.00;;;;;;;;;;10068773;28;20050;-72
2023/03/05 03:50:00;;;;;;;13.38;9.63;;;;;;;;;;10069311;28;20053;-72
2023/03/05 03:55:00;;;;;;;9.93;8.13;;;;;;;;;;10069800;28;20128;-73
2023/03/05 03:59:53;;;;;;;13.48;9.07;;;;;;;;;;10069436;28;20049;-72
2023/03/05 04:04:47;;;;;;;8.35;7.20;;;;;;;;;;10069148;28;20042;-72
2023/03/05 04:09:40;;;;;;;12.02;8.93;;;;;;;;;;10066010;28;20053;-72
2023/03/05 04:14:33;;;;;;;12.98;8.57;;;;;;;;;;10068750;28;20084;-74
2023/03/05 04:19:27;;;;;;;8.27;7.28;;;;;;;;;;10068463;28;20050;-73
2023/03/05 04:24:20;;;;;;;12.45;7.78;;;;;;;;;;10068817;28;20531;-73
2023/03/05 04:29:14;;;;;;;13.63;10.60;;;;;;;;;;10068623;28;20393;-73
2023/03/05 04:34:06;;;;;;;13.93;10.15;;;;;;;;;;10068621;28;20117;-73
2023/03/05 04:39:01;;;;;;;14.85;9.57;;;;;;;;;;10068318;28;20448;-73
2023/03/05 04:43:54;;;;;;;16.02;10.82;;;;;;;;;;10067784;28;20145;-72
2023/03/05 04:48:47;;;;;;;16.95;10.15;;;;;;;;;;10067473;28;20057;-72
2023/03/05 04:53:41;;;;;;;13.15;9.85;;;;;;;;;;10067165;28;20049;-72
2023/03/05 04:58:34;;;;;;;13.15;9.32;;;;;;;;;;10067597;28;20715;-73
2023/03/05 05:03:26;;;;;;;12.02;9.35;;;;;;;;;;10067270;28;20056;-72
2023/03/05 05:08:20;;;;;;;12.52;8.35;;;;;;;;;;10066546;28;20049;-72
2023/03/05 05:13:14;;;;;;;10.38;8.20;;;;;;;;;;10066790;28;20519;-72
2023/03/05 05:18:07;;;;;;;11.25;7.97;;;;;;;;;;10066556;28;20053;-72
2023/03/05 05:23:00;;;;;;;12.95;9.38;;;;;;;;;;10065203;28;20072;-72
2023/03/05 05:27:53;;;;;;;12.77;8.00;;;;;;;;;;10066239;28;20049;-72
2023/03/05 05:32:46;;;;;;;10.65;8.30;;;;;;;;;;10065910;28;20049;-72
2023/03/05 05:37:39;;;;;;;9.98;7.60;;;;;;;;;;10065814;28;20054;-72
2023/03/05 05:42:32;;;;;;;10.02;8.52;;;;;;;;;;10066473;28;20083;-72
2023/03/05 05:47:24;;;;;;;10.55;8.80;;;;;;;;;;10064885;28;20496;-72
2023/03/05 05:52:17;;;;;;;10.65;8.13;;;;;;;;;;10065707;28;20113;-72
2023/03/05 05:57:11;;;;;;;13.13;7.88;;;;;;;;;;10064899;28;20065;-74
2023/03/05 06:02:06;;;;;;;12.60;7.78;;;;;;;;;;10064892;28;20053;-74
2023/03/05 06:06:59;;;;;;;21.15;8.88;;;;;;;;;;10062169;28;20524;-73
2023/03/05 06:11:53;;;;;;;8.10;7.25;;;;;;;;;;10075933;28;20053;-72
2023/03/05 06:16:46;;;;;;;8.20;6.70;;;;;;;;;;10072640;28;20046;-74
2023/03/05 06:21:40;;;;;;;7.65;6.38;;;;;;;;;;10079693;28;20056;-74
2023/03/05 06:26:33;;;;;;;9.25;7.43;;;;;;;;;;10073935;28;20072;-73
2023/03/05 06:31:28;;;;;;;12.93;6.85;;;;;;;;;;10070685;28;20057;-73
2023/03/05 06:36:23;;;;;;;9.93;6.85;;;;;;;;;;10073749;28;20504;-74
2023/03/05 06:41:18;;;;;;;13.65;6.93;;;;;;;;;;10069793;28;20040;-75
2023/03/05 06:46:13;;;;;;;13.85;8.75;;;;;;;;;;10070812;28;20400;-74
2023/03/05 06:51:38;;;;;;;11.40;9.82;;;;;;;;;;10071124;28;20057;-76
2023/03/05 06:56:31;;;;;;;13.88;10.45;;;;;;;;;;10068737;28;20536;-77
2023/03/05 07:01:24;;;;;;;10.23;8.73;;;;;;;;;;10076328;28;20057;-76
2023/03/05 07:06:17;;;;;;;14.40;9.15;;;;;;;;;;10069659;28;20049;-78
2023/03/05 07:11:14;;;;;;;11.15;8.15;;;;;;;;;;10076120;28;20489;-78
2023/03/05 07:16:09;;;;;;;12.43;8.10;;;;;;;;;;10072363;28;20049;-75
2023/03/05 07:21:05;;;;;;;14.23;8.02;;;;;;;;;;10073535;28;20910;-74
2023/03/05 07:26:00;;;;;;;6.97;6.25;;;;;;;;;;10081921;28;20519;-74
2023/03/05 07:30:55;;;;;;;13.27;7.90;;;;;;;;;;10080977;28;20045;-75
2023/03/05 07:35:49;;;;;;;10.43;6.95;;;;;;;;;;10077742;28;20128;-73
2023/03/05 07:40:43;;;;;;;17.25;8.80;;;;;;;;;;10083379;28;20045;-73
2023/03/05 07:45:40;;;;;;;13.00;10.57;;;;;;;;;;10078886;28;20422;-74
2023/03/05 07:50:34;;;;;;;13.63;9.98;;;;;;;;;;10074613;28;20049;-76
2023/03/05 07:55:27;;;;;;;12.52;8.77;;;;;;;;;;10076424;28;20048;-74
2023/03/05 08:00:20;;;;;;;11.57;8.82;;;;;;;;;;10076744;28;20036;-73
2023/03/05 08:05:13;;;;;;;15.05;10.77;;;;;;;;;;10057871;28;20072;-75
2023/03/05 08:10:09;;;;;;;11.65;8.73;;;;;;;;;;10070718;28;20079;-74
2023/03/05 08:15:03;;;;;;;9.70;8.65;;;;;;;;;;10074455;28;20036;-72
2023/03/05 08:19:59;;;;;;;24.17;9.55;;;;;;;;;;10079574;28;20065;-69
2023/03/05 08:24:51;;;;;;;10.65;8.40;;;;;;;;;;10082319;28;20050;-72
2023/03/05 08:29:44;;;;;;;10.93;8.50;;;;;;;;;;10079442;28;20052;-68
2023/03/05 08:34:38;;;;;;;10.77;9.18;;;;;;;;;;10076301;28;20128;-74
2023/03/05 08:39:31;;;;;;;10.65;8.45;;;;;;;;;;10076591;28;20041;-72
2023/03/05 08:44:26;;;;;;;13.43;9.70;;;;;;;;;;10079080;28;20394;-72
2023/03/05 08:49:19;;;;;;;15.57;9.82;;;;;;;;;;10071684;28;20061;-72
2023/03/05 08:54:13;;;;;;;11.85;9.75;;;;;;;;;;10081024;28;20128;-74
2023/03/05 08:59:05;;;;;;;13.18;9.55;;;;;;;;;;10075836;28;20496;-74
2023/03/05 09:03:58;;;;;;;13.90;8.93;;;;;;;;;;10072893;28;20172;-74
2023/03/05 09:08:52;;;;;;;14.23;8.75;;;;;;;;;;10077546;28;20125;-74
2023/03/05 09:13:45;;;;;;;16.05;10.18;;;;;;;;;;10062440;28;20049;-74
2023/03/05 09:18:39;;;;;;;21.45;10.15;;;;;;;;;;10064584;28;20053;-74
2023/03/05 09:23:32;;;;;;;14.10;9.45;;;;;;;;;;10058331;28;20471;-74
2023/03/05 09:28:26;;;;;;;10.23;8.93;;;;;;;;;;10070031;28;20048;-74
2023/03/05 09:33:19;;;;;;;13.00;8.52;;;;;;;;;;10077434;28;20053;-74
2023/03/05 09:38:12;;;;;;;13.52;8.85;;;;;;;;;;10075735;28;20076;-74
2023/03/05 09:43:50;;;;;;;15.38;10.43;;;;;;;;;;10067951;28;20065;-74
2023/03/05 09:48:52;;;;;;;12.18;7.82;;;;;;;;;;10064188;28;20040;-74
2023/03/05 09:53:54;;;;;;;10.48;8.93;;;;;;;;;;10070309;28;20479;-74
2023/03/05 09:58:52;;;;;;;11.15;9.80;;;;;;;;;;10069766;28;20030;-74
2023/03/05 10:03:59;;;;;;;11.23;9.38;;;;;;;;;;10067765;28;20046;-74
2023/03/05 10:09:01;;;;;;;11.50;9.18;;;;;;;;;;10076174;28;20054;-74
2023/03/05 10:13:54;;;;;;;12.30;9.52;;;;;;;;;;10074838;28;20765;-74
2023/03/05 10:18:55;;;;;;;14.50;9.20;;;;;;;;;;10071223;28;20129;-74
2023/03/05 10:24:06;;;;;;;9.60;8.18;;;;;;;;;;10068407;28;20053;-74
2023/03/05 10:29:23;;;;;;;9.75;7.50;;;;;;;;;;10067998;28;20458;-74
2023/03/05 10:34:30;;;;;;;11.83;8.77;;;;;;;;;;10067313;28;20100;-73
2023/03/05 10:40:00;;;;;;;10.50;8.07;;;;;;;;;;10068012;28;20048;-74
2023/03/05 10:44:56;;;;;;;10.57;7.25;;;;;;;;;;10072429;28;20041;-74
2023/03/05 10:49:54;;;;;;;12.63;8.05;;;;;;;;;;10076716;28;20060;-74
2023/03/05 10:54:46;;;;;;;12.88;7.18;;;;;;;;;;10085829;28;20064;-74
2023/03/05 11:00:05;;;;;;;11.57;8.55;;;;;;;;;;10082751;28;20068;-74
2023/03/05 11:04:59;;;;;;;12.18;7.68;;;;;;;;;;10083671;28;20038;-74
2023/03/05 11:10:16;;;;;;;15.10;8.93;;;;;;;;;;10086210;28;20496;-74
2023/03/05 11:15:08;;;;;;;13.88;8.55;;;;;;;;;;10075557;28;20057;-74
2023/03/05 11:20:30;;;;;;;9.50;7.43;;;;;;;;;;10077904;28;20056;-74
2023/03/05 11:25:25;;;;;;;12.25;7.95;;;;;;;;;;10074194;28;20124;-75
2023/03/05 11:30:25;;;;;;;11.27;7.80;;;;;;;;;;10073435;28;20439;-74
2023/03/05 11:35:33;;;;;;;13.38;8.55;;;;;;;;;;10078766;28;20038;-74
2023/03/05 11:40:29;;;;;;;14.82;7.60;;;;;;;;;;10077756;28;20520;-74
2023/03/05 11:45:23;;;;;;;11.38;8.57;;;;;;;;;;10075298;28;20393;-74
2023/03/05 11:50:26;;;;;;;15.68;8.45;;;;;;;;;;10081012;28;20518;-74
2023/03/05 11:55:25;;;;;;;13.70;9.35;;;;;;;;;;10088394;28;20048;-74
2023/03/05 12:00:27;;;;;;;12.65;8.93;;;;;;;;;;10085602;28;20489;-74
2023/03/05 12:05:20;;;;;;;12.55;9.35;;;;;;;;;;10074839;28;20578;-74
2023/03/05 12:10:18;;;;;;;12.55;8.63;;;;;;;;;;10072984;28;20077;-75
2023/03/05 12:15:56;;;;;;;11.65;7.63;;;;;;;;;;10079149;28;20056;-75
2023/03/05 12:21:22;;;;;;;12.55;8.48;;;;;;;;;;10074226;28;20041;-74
2023/03/05 12:26:16;;;;;;;13.15;7.80;;;;;;;;;;10065852;28;20046;-75
2023/03/05 12:31:38;;;;;;;16.25;9.10;;;;;;;;;;10077174;28;20041;-74
2023/03/05 12:36:33;;;;;;;9.93;6.80;;;;;;;;;;10064231;28;20049;-75
2023/03/05 12:41:28;;;;;;;14.55;7.45;;;;;;;;;;10074550;28;20039;-75
2023/03/05 12:46:27;;;;;;;12.18;7.85;;;;;;;;;;10064413;28;20417;-75
2023/03/05 12:51:48;;;;;;;12.15;7.70;;;;;;;;;;10065649;28;20057;-71
2023/03/05 12:56:44;;;;;;;10.60;7.35;;;;;;;;;;10067511;28;20061;-72
2023/03/05 13:01:42;;;;;;;10.30;6.40;;;;;;;;;;10074719;28;20129;-72
2023/03/05 13:06:36;;;;;;;;;;;;;;;;;;10071078;28;20057;-72
2023/03/05 13:11:33;;;;;;;10.63;7.18;;;;;;;;;;10074427;28;19928;-72
2023/03/05 13:16:28;;;;;;;12.45;8.27;;;;;;;;;;10069767;28;20065;-72
2023/03/05 13:21:26;;;;;;;12.93;7.75;;;;;;;;;;10074444;28;20096;-72
2023/03/05 13:26:19;;;;;;;10.95;7.82;;;;;;;;;;10071449;28;20045;-72
2023/03/05 13:31:20;;;;;;;11.25;8.50;;;;;;;;;;10069631;28;20049;-71
2023/03/05 13:36:13;;;;;;;15.18;8.38;;;;;;;;;;10077110;28;20052;-73
2023/03/05 13:41:15;;;;;;;17.75;9.27;;;;;;;;;;10069817;28;20076;-70
2023/03/05 13:46:08;;;;;;;12.30;8.30;;;;;;;;;;10067135;28;20080;-73
2023/03/05 13:51:07;;;;;;;16.58;9.35;;;;;;;;;;10068612;28;20057;-73
2023/03/05 13:56:04;;;;;;;16.50;8.30;;;;;;;;;;10071972;28;20049;-73
2023/03/05 14:01:30;;;;;;;12.63;8.75;;;;;;;;;;10065520;28;20137;-73
2023/03/05 14:06:27;;;;;;;14.63;8.35;;;;;;;;;;10056874;28;20081;-73
2023/03/05 14:11:20;;;;;;;11.20;8.75;;;;;;;;;;10071131;28;20397;-73
2023/03/05 14:16:34;;;;;;;16.33;11.10;;;;;;;;;;10063877;28;20053;-73
2023/03/05 14:21:47;;;;;;;16.20;10.45;;;;;;;;;;10073856;28;20056;-73
2023/03/05 14:26:47;;;;;;;16.65;10.00;;;;;;;;;;10073587;28;20053;-73
2023/03/05 14:31:54;;;;;;;17.95;9.25;;;;;;;;;;10094284;28;20061;-73
2023/03/05 14:36:49;;;;;;;14.38;9.15;;;;;;;;;;10080682;28;20128;-72
2023/03/05 14:41:43;;;;;;;26.00;10.75;;;;;;;;;;10090620;28;20077;-73
2023/03/05 14:46:36;;;;;;;15.48;9.82;;;;;;;;;;10074753;28;20068;-73
2023/03/05 14:51:31;;;;;;;12.70;8.68;;;;;;;;;;10083364;28;20494;-73
2023/03/05 14:56:44;;;;;;;16.88;10.80;;;;;;;;;;10071858;28;20080;-72
2023/03/05 15:01:37;;;;;;;15.20;9.60;;;;;;;;;;10073873;28;20132;-73
2023/03/05 15:06:35;;;;;;;14.23;10.25;;;;;;;;;;10074523;28;20057;-72
2023/03/05 15:11:28;;;;;;;13.48;9.48;;;;;;;;;;10101568;28;20045;-73
2023/03/05 15:16:22;;;;;;;12.98;11.20;;;;;;;;;;10068960;28;20069;-72
2023/03/05 15:21:15;;;;;;;11.57;9.15;;;;;;;;;;10080015;28;20048;-73
2023/03/05 15:26:12;;;;;;;13.95;9.60;;;;;;;;;;10076551;28;20042;-73
2023/03/05 15:31:05;;;;;;;15.80;10.80;;;;;;;;;;10076925;28;20045;-73
2023/03/05 15:35:58;;;;;;;19.00;11.25;;;;;;;;;;10077443;28;20037;-73
2023/03/05 15:40:52;;;;;;;16.40;9.32;;;;;;;;;;10074074;28;20045;-72
2023/03/05 15:45:45;;;;;;;13.95;10.18;;;;;;;;;;10080441;28;20073;-73
2023/03/05 15:50:41;;;;;;;16.90;10.02;;;;;;;;;;10079047;28;20057;-72
2023/03/05 15:55:39;;;;;;;18.00;11.52;;;;;;;;;;10079690;28;20135;-72
2023/03/05 16:00:35;;;;;;;14.88;9.05;;;;;;;;;;10069142;28;20128;-73
2023/03/05 16:05:29;;;;;;;14.65;9.93;;;;;;;;;;10077494;28;20041;-72
2023/03/05 16:10:24;;;;;;;18.52;10.48;;;;;;;;;;10069810;28;20054;-72
2023/03/05 16:15:19;;;;;;;14.18;9.48;;;;;;;;;;10070007;28;20053;-72
2023/03/05 16:20:13;;;;;;;16.70;10.30;;;;;;;;;;10068725;28;20476;-72
2023/03/05 16:25:07;;;;;;;13.70;9.02;;;;;;;;;;10075105;28;20059;-72
2023/03/05 16:30:01;;;;;;;19.35;9.45;;;;;;;;;;10083419;28;20045;-72
2023/03/05 16:34:56;;;;;;;12.88;10.85;;;;;;;;;;10075738;28;20132;-72
2023/03/05 16:39:58;;;;;;;17.48;9.70;;;;;;;;;;10073517;28;20137;-72
2023/03/05 16:44:52;;;;;;;19.05;11.95;;;;;;;;;;10071975;28;20053;-72
2023/03/05 16:49:45;;;;;;;22.25;13.43;;;;;;;;;;10069974;28;20049;-72
2023/03/05 16:54:40;;;;;;;16.63;13.13;;;;;;;;;;10070363;28;20045;-72
2023/03/05 16:59:34;;;;;;;21.45;14.70;;;;;;;;;;10069119;28;20077;-72
2023/03/05 17:04:28;;;;;;;26.83;18.88;;;;;;;;;;10069581;28;20076;-72
2023/03/05 17:09:24;;;;;;;27.95;19.50;;;;;;;;;;10067963;28;20045;-71
2023/03/05 17:14:17;;;;;;;37.33;19.92;;;;;;;;;;10068832;28;20063;-71
2023/03/05 17:19:10;;;;;;;23.45;16.33;;;;;;;;;;10072098;28;20037;-71
2023/03/05 17:24:03;;;;;;;24.15;15.93;;;;;;;;;;10074152;28;20114;-71
2023/03/05 17:28:56;;;;;;;26.13;16.52;;;;;;;;;;10076414;28;20064;-71
2023/03/05 17:33:49;;;;;;;26.33;15.48;;;;;;;;;;10077752;28;20052;-70
2023/03/05 17:38:42;;;;;;;22.10;12.10;;;;;;;;;;10077885;28;20077;-70
2023/03/05 17:43:34;;;;;;;11.25;7.25;;;;;;;;;;10074852;28;20046;-70
2023/03/05 17:48:28;;;;;;;8.65;6.30;;;;;;;;;;10065325;28;20505;-70
2023/03/05 17:53:21;;;;;;;8.30;5.53;;;;;;;;;;10073491;28;20467;-70
2023/03/05 17:58:14;;;;;;;11.68;5.88;;;;;;;;;;10066677;28;20092;-70
2023/03/05 18:03:07;;;;;;;7.15;4.97;;;;;;;;;;10073016;28;20534;-71
2023/03/05 18:08:02;;;;;;;8.55;6.72;;;;;;;;;;10066024;28;20519;-70
2023/03/05 18:12:55;;;;;;;11.50;5.85;;;;;;;;;;10076423;28;20049;-70
2023/03/05 18:17:49;;;;;;;11.10;5.75;;;;;;;;;;10076859;28;20048;-71
2023/03/05 18:22:42;;;;;;;11.75;6.30;;;;;;;;;;10076345;28;20041;-70
2023/03/05 18:27:36;;;;;;;11.05;5.90;;;;;;;;;;10074187;28;20045;-69
2023/03/05 18:32:29;;;;;;;9.85;6.60;;;;;;;;;;10074037;28;20401;-70
2023/03/05 18:37:23;;;;;;;11.45;5.45;;;;;;;;;;10076054;28;20148;-70
2023/03/05 18:42:17;;;;;;;10.13;6.18;;;;;;;;;;10065655;28;20144;-66
2023/03/05 18:47:10;;;;;;;14.38;6.75;;;;;;;;;;10068401;28;20045;-66
2023/03/05 18:52:05;;;;;;;10.27;6.68;;;;;;;;;;10074332;28;20050;-66
2023/03/05 18:56:57;;;;;;;14.45;8.73;;;;;;;;;;10068111;28;20045;-67
2023/03/05 19:01:50;;;;;;;21.02;11.48;;;;;;;;;;10067663;28;20052;-66
2023/03/05 19:06:44;;;;;;;13.23;8.43;;;;;;;;;;10079219;28;20041;-66
2023/03/05 19:11:36;;;;;;;12.52;6.30;;;;;;;;;;10079366;28;20069;-66
2023/03/05 19:16:37;;;;;;;14.38;8.88;;;;;;;;;;10078015;28;20038;-67
2023/03/05 19:21:30;;;;;;;13.00;8.15;;;;;;;;;;10081764;28;20064;-68
2023/03/05 19:26:23;;;;;;;11.40;7.53;;;;;;;;;;10077739;28;20080;-66
2023/03/05 19:31:16;;;;;;;25.73;19.13;;;;;;;;;;10076330;28;20048;-65
2023/03/05 19:36:10;;;;;;;13.45;9.32;;;;;;;;;;10074952;28;20057;-67
2023/03/05 19:41:04;;;;;;;13.55;7.60;;;;;;;;;;10081091;28;20049;-68
2023/03/05 19:46:05;;;;;;;18.58;9.40;;;;;;;;;;10079137;28;20137;-67
2023/03/05 19:51:00;;;;;;;17.80;12.55;;;;;;;;;;10076189;28;20045;-67
2023/03/05 19:55:53;;;;;;;12.07;9.52;;;;;;;;;;10076442;28;20045;-67
2023/03/05 20:00:46;;;;;;;11.80;8.05;;;;;;;;;;10075086;28;20070;-66
2023/03/05 20:05:42;;;;;;;15.15;7.22;;;;;;;;;;10080157;28;20038;-66
2023/03/05 20:10:36;;;;;;;16.95;7.22;;;;;;;;;;10080697;28;20499;-67
2023/03/05 20:15:30;;;;;;;13.35;8.93;;;;;;;;;;10077279;28;20100;-68
2023/03/05 20:20:23;;;;;;;20.75;8.45;;;;;;;;;;10078090;28;20381;-68
2023/03/05 20:25:23;;;;;;;13.23;7.50;;;;;;;;;;10076318;28;20045;-68
2023/03/05 20:30:17;;;;;;;14.23;8.32;;;;;;;;;;10072734;28;20554;-69
2023/03/05 20:35:16;;;;;;;17.63;7.45;;;;;;;;;;10072169;28;20760;-72
2023/03/05 20:40:12;;;;;;;11.47;6.67;;;;;;;;;;10073630;28;20114;-71
2023/03/05 20:45:08;;;;;;;13.88;6.95;;;;;;;;;;10078516;28;20182;-68
2023/03/05 20:50:02;;;;;;;12.40;7.40;;;;;;;;;;10073849;28;20057;-69
2023/03/05 20:54:56;;;;;;;10.65;6.55;;;;;;;;;;10072212;28;20072;-67
2023/03/05 20:59:48;;;;;;;12.23;7.15;;;;;;;;;;10074003;28;20049;-71
2023/03/05 21:04:43;;;;;;;11.45;6.85;;;;;;;;;;10074995;28;20045;-68
2023/03/05 21:09:36;;;;;;;9.48;7.47;;;;;;;;;;10076280;28;20488;-69
2023/03/05 21:14:36;;;;;;;16.63;8.30;;;;;;;;;;10076243;28;20047;-70
2023/03/05 21:19:29;;;;;;;14.25;8.55;;;;;;;;;;10073815;28;20130;-70
2023/03/05 21:30:02;;;;;;;12.40;8.43;;;;;;;;;;10073728;28;20095;-69
2023/03/05 21:34:56;;;;;;;14.48;8.90;;;;;;;;;;10072918;28;20059;-71
2023/03/05 21:39:51;;;;;;;17.73;10.07;;;;;;;;;;10073294;28;20052;-72
2023/03/05 21:44:45;;;;;;;12.23;8.32;;;;;;;;;;10073189;28;20554;-73
2023/03/05 21:49:39;;;;;;;17.27;8.35;;;;;;;;;;10067931;28;20140;-74
2023/03/05 21:54:32;;;;;;;14.20;7.25;;;;;;;;;;10068896;28;20033;-72
2023/03/05 21:59:26;;;;;;;12.65;7.70;;;;;;;;;;10078358;28;20055;-72
2023/03/05 22:04:20;;;;;;;15.35;7.45;;;;;;;;;;10073610;28;20116;-73
2023/03/05 22:09:14;;;;;;;14.85;7.97;;;;;;;;;;10076896;28;20061;-76
2023/03/05 22:14:09;;;;;;;14.18;9.00;;;;;;;;;;10077877;28;20500;-73
2023/03/05 22:19:03;;;;;;;18.83;9.27;;;;;;;;;;10072541;28;20073;-72
2023/03/05 22:23:57;;;;;;;17.05;9.73;;;;;;;;;;10070354;28;20045;-72
2023/03/05 22:28:50;;;;;;;18.17;9.77;;;;;;;;;;10075272;28;20076;-70
2023/03/05 22:33:44;;;;;;;19.38;13.07;;;;;;;;;;10077231;28;20060;-71
2023/03/05 22:38:38;;;;;;;15.95;11.50;;;;;;;;;;10073954;28;20053;-71
2023/03/05 22:43:33;;;;;;;16.48;10.77;;;;;;;;;;10073995;28;20075;-71
2023/03/05 22:48:26;;;;;;;18.08;10.40;;;;;;;;;;10071969;28;20061;-74
2023/03/05 22:53:19;;;;;;;14.90;10.32;;;;;;;;;;10083489;28;20049;-71
2023/03/05 22:58:14;;;;;;;19.15;10.07;;;;;;;;;;10079076;28;20084;-71
2023/03/05 23:03:07;;;;;;;18.00;12.25;;;;;;;;;;10086261;28;20124;-70
2023/03/05 23:08:02;;;;;;;17.10;9.85;;;;;;;;;;10081313;28;20106;-70
2023/03/05 23:12:55;;;;;;;20.80;10.50;;;;;;;;;;10073403;28;20071;-70
2023/03/05 23:17:49;;;;;;;15.18;9.75;;;;;;;;;;10081800;28;20049;-70
2023/03/05 23:22:44;;;;;;;18.70;11.15;;;;;;;;;;10081175;28;20053;-69
2023/03/05 23:27:37;;;;;;;16.73;11.13;;;;;;;;;;10079899;28;20038;-70
2023/03/05 23:32:30;;;;;;;22.33;11.60;;;;;;;;;;10081067;28;20048;-70
2023/03/05 23:37:24;;;;;;;17.05;10.30;;;;;;;;;;10075952;28;20691;-71
2023/03/05 23:42:17;;;;;;;17.42;10.90;;;;;;;;;;10075629;28;20511;-71
2023/03/05 23:47:09;;;;;;;21.35;11.75;;;;;;;;;;10076680;28;20033;-71
2023/03/05 23:52:02;;;;;;;13.55;8.90;;;;;;;;;;10077859;28;20051;-72
2023/03/05 23:56:57;;;;;;;21.10;9.80;;;;;;;;;;10076084;28;20500;-72
